Time;durP1;ratioP1;P1;durP2;ratioP2;P2;SDS_P1;SDS_P2;PMS_P1;PMS_P2;Temp;Humidity;BMP_temperature;BMP_pressure;BME280_temperature;BME280_humidity;BME280_pressure;Samples;Min_cycle;Max_cycle;Signal;HPM_P1;HPM_P2
2022/07/16 00:03:16;;;;;;;;;;;;;;;16.73;nan;98392.09;5020845;28;19925;-73
2022/07/16 00:05:45;;;;;;;;;;;;;;;16.82;nan;98396.66;5007321;28;19931;-72
2022/07/16 00:08:14;;;;;;;;;;;;;;;16.82;nan;98394.72;5010120;28;19941;-73
2022/07/16 00:10:46;;;;;;;;;;;;;;;16.84;nan;98391.66;5007514;28;19934;-72
2022/07/16 00:13:17;;;;;;;;;;;;;;;16.72;nan;98387.75;5008476;28;19925;-72
2022/07/16 00:15:45;;;;;;;;;;;;;;;16.67;nan;98389.84;5004780;28;19925;-72
2022/07/16 00:20:59;;;;;;;;;;;;;;;16.55;nan;98387.88;5022746;28;19932;-72
2022/07/16 00:23:29;;;;;;;;;;;;;;;16.59;nan;98380.59;5012396;28;19925;-73
2022/07/16 00:25:57;;;;;;;;;;;;;;;16.48;nan;98384.91;5012007;28;19935;-72
2022/07/16 00:28:25;;;;;;;;;;;;;;;16.40;nan;98380.28;5012899;28;19925;-72
2022/07/16 00:30:53;;;;;;;;;;;;;;;16.31;nan;98385.09;5007688;28;19930;-72
2022/07/16 00:33:21;;;;;;;;;;;;;;;16.23;nan;98378.53;5027432;28;19926;-72
2022/07/16 00:35:49;;;;;;;;;;;;;;;16.18;nan;98376.78;5009486;28;19925;-73
2022/07/16 00:38:17;;;;;;;;;;;;;;;16.19;nan;98383.06;5008137;28;19925;-73
2022/07/16 00:40:47;;;;;;;;;;;;;;;16.15;nan;98379.44;5023804;28;19932;-73
2022/07/16 00:43:15;;;;;;;;;;;;;;;16.10;nan;98376.88;5010603;28;20259;-72
2022/07/16 00:45:43;;;;;;;;;;;;;;;16.13;nan;98377.00;5008518;28;19925;-73
2022/07/16 00:48:11;;;;;;;;;;;;;;;16.16;nan;98383.75;5011058;28;19925;-74
2022/07/16 00:50:40;;;;;;;;;;;;;;;16.22;nan;98382.41;5013461;28;19931;-73
2022/07/16 00:53:13;;;;;;;;;;;;;;;16.28;nan;98377.53;5012025;28;19935;-73
2022/07/16 00:55:42;;;;;;;;;;;;;;;16.29;nan;98381.84;5010510;28;20021;-73
2022/07/16 00:58:11;;;;;;;;;;;;;;;16.26;nan;98379.81;5013124;28;20371;-73
2022/07/16 01:00:39;;;;;;;;;;;;;;;16.32;nan;98384.75;5005222;28;20399;-73
2022/07/16 01:03:07;;;;;;;;;;;;;;;16.42;nan;98381.56;5012735;28;19933;-72
2022/07/16 01:05:35;;;;;;;;;;;;;;;16.33;nan;98385.53;5005129;28;20372;-74
2022/07/16 01:08:03;;;;;;;;;;;;;;;16.26;nan;98386.09;5027882;28;20020;-72
2022/07/16 01:13:25;;;;;;;;;;;;;;;16.12;nan;98383.63;5006273;28;19951;-72
2022/07/16 01:15:53;;;;;;;;;;;;;;;16.21;nan;98384.34;5007817;28;19929;-72
2022/07/16 01:18:21;;;;;;;;;;;;;;;16.08;nan;98381.88;5011565;28;20402;-72
2022/07/16 01:20:50;;;;;;;;;;;;;;;15.95;nan;98381.84;5010588;28;19935;-72
2022/07/16 01:23:20;;;;;;;;;;;;;;;16.12;nan;98393.78;5006961;28;19932;-72
2022/07/16 01:25:48;;;;;;;;;;;;;;;16.02;nan;98389.50;5010528;28;20327;-72
2022/07/16 01:28:17;;;;;;;;;;;;;;;15.85;nan;98381.44;5009427;28;20533;-72
2022/07/16 01:30:45;;;;;;;;;;;;;;;15.62;nan;98387.22;5006717;28;19930;-72
2022/07/16 01:33:39;;;;;;;;;;;;;;;15.81;nan;98386.78;5009211;28;20264;-72
2022/07/16 01:36:08;;;;;;;;;;;;;;;15.83;nan;98389.19;5007497;28;19981;-72
2022/07/16 01:38:39;;;;;;;;;;;;;;;15.84;nan;98391.59;5012024;28;19926;-72
2022/07/16 01:41:07;;;;;;;;;;;;;;;15.99;nan;98381.97;5012558;28;20017;-73
2022/07/16 01:43:35;;;;;;;;;;;;;;;15.65;nan;98389.31;5011281;28;20011;-72
2022/07/16 01:46:06;;;;;;;;;;;;;;;15.79;nan;98389.06;5001071;28;20357;-72
2022/07/16 01:48:34;;;;;;;;;;;;;;;15.75;nan;98387.31;5012363;28;20370;-72
2022/07/16 01:51:02;;;;;;;;;;;;;;;15.73;nan;98397.81;5008000;28;19955;-72
2022/07/16 01:53:32;;;;;;;;;;;;;;;15.75;nan;98387.31;5010394;28;20368;-73
2022/07/16 01:56:01;;;;;;;;;;;;;;;15.84;nan;98388.84;5007182;28;19926;-72
2022/07/16 01:58:36;;;;;;;;;;;;;;;15.76;nan;98380.69;5011894;28;19925;-72
2022/07/16 02:01:29;;;;;;;;;;;;;;;15.77;nan;98380.38;5002395;28;19929;-72
2022/07/16 02:03:58;;;;;;;;;;;;;;;15.69;nan;98379.28;5008584;28;19933;-72
2022/07/16 02:06:26;;;;;;;;;;;;;;;15.77;nan;98374.09;5009050;28;19932;-72
2022/07/16 02:08:54;;;;;;;;;;;;;;;15.80;nan;98376.97;5007470;28;20021;-72
2022/07/16 02:11:23;;;;;;;;;;;;;;;15.76;nan;98372.47;5005571;28;19943;-72
2022/07/16 02:13:52;;;;;;;;;;;;;;;15.86;nan;98366.59;5002880;28;20410;-72
2022/07/16 02:19:19;;;;;;;;;;;;;;;15.93;nan;98375.09;5009539;28;20002;-72
2022/07/16 02:22:20;;;;;;;;;;;;;;;15.94;nan;98374.75;4997037;28;19940;-72
2022/07/16 02:24:48;;;;;;;;;;;;;;;15.95;nan;98381.03;5024945;28;20384;-72
2022/07/16 02:27:17;;;;;;;;;;;;;;;15.95;nan;98376.34;5012618;28;19933;-72
2022/07/16 02:29:46;;;;;;;;;;;;;;;16.01;nan;98367.94;5012690;28;19935;-73
2022/07/16 02:32:14;;;;;;;;;;;;;;;15.85;nan;98370.47;5000933;28;20011;-73
2022/07/16 02:34:48;;;;;;;;;;;;;;;15.84;nan;98374.38;5009555;28;19943;-73
2022/07/16 02:37:16;;;;;;;;;;;;;;;15.80;nan;98374.22;5009093;28;19925;-72
2022/07/16 02:39:44;;;;;;;;;;;;;;;15.81;nan;98375.03;5009684;28;19925;-72
2022/07/16 02:42:16;;;;;;;;;;;;;;;15.87;nan;98379.16;5010932;28;19925;-72
2022/07/16 02:44:46;;;;;;;;;;;;;;;15.76;nan;98376.00;5006358;28;20386;-72
2022/07/16 02:47:14;;;;;;;;;;;;;;;15.64;nan;98378.69;5005906;28;20035;-72
2022/07/16 02:49:42;;;;;;;;;;;;;;;15.51;nan;98383.28;5009281;28;20384;-72
2022/07/16 02:52:11;;;;;;;;;;;;;;;15.47;nan;98376.84;5005647;28;20002;-72
2022/07/16 02:54:43;;;;;;;;;;;;;;;15.45;nan;98381.84;5010376;28;19925;-73
2022/07/16 02:57:11;;;;;;;;;;;;;;;15.41;nan;98380.91;5009858;28;19939;-73
2022/07/16 02:59:39;;;;;;;;;;;;;;;15.39;nan;98381.25;5010921;28;19932;-72
2022/07/16 03:02:08;;;;;;;;;;;;;;;15.36;nan;98376.44;5005850;28;20005;-73
2022/07/16 03:04:37;;;;;;;;;;;;;;;15.36;nan;98378.38;5008646;28;19925;-72
2022/07/16 03:07:05;;;;;;;;;;;;;;;15.33;nan;98373.53;5025753;28;19963;-72
2022/07/16 03:09:34;;;;;;;;;;;;;;;15.31;nan;98373.88;5001843;28;20252;-72
2022/07/16 03:14:54;;;;;;;;;;;;;;;15.28;nan;98376.47;5010489;28;20382;-72
2022/07/16 03:17:27;;;;;;;;;;;;;;;15.12;nan;98381.69;4991581;28;19925;-72
2022/07/16 03:19:55;;;;;;;;;;;;;;;14.87;nan;98386.97;5008147;28;19934;-73
2022/07/16 03:22:24;;;;;;;;;;;;;;;14.73;nan;98388.31;5008644;28;19947;-75
2022/07/16 03:24:56;;;;;;;;;;;;;;;14.83;nan;98391.47;5008997;28;19934;-74
2022/07/16 03:27:24;;;;;;;;;;;;;;;14.91;nan;98387.09;5010374;28;19926;-74
2022/07/16 03:29:52;;;;;;;;;;;;;;;14.85;nan;98382.94;5009324;28;19925;-74
2022/07/16 03:32:20;;;;;;;;;;;;;;;14.96;nan;98397.88;5005662;28;19967;-72
2022/07/16 03:34:50;;;;;;;;;;;;;;;14.98;nan;98394.81;5000209;28;19926;-72
2022/07/16 03:37:18;;;;;;;;;;;;;;;15.11;nan;98394.59;5008051;28;19925;-72
2022/07/16 03:39:46;;;;;;;;;;;;;;;15.12;nan;98400.84;5008809;28;20279;-72
2022/07/16 03:42:17;;;;;;;;;;;;;;;15.11;nan;98404.72;5025069;28;19925;-72
2022/07/16 03:44:46;;;;;;;;;;;;;;;15.17;nan;98397.94;5024922;28;19945;-72
2022/07/16 03:47:14;;;;;;;;;;;;;;;15.08;nan;98402.66;4983842;28;19932;-72
2022/07/16 03:50:08;;;;;;;;;;;;;;;15.02;nan;98399.31;5004364;28;19940;-73
2022/07/16 03:52:43;;;;;;;;;;;;;;;15.00;nan;98401.56;5007531;28;19951;-73
2022/07/16 03:55:12;;;;;;;;;;;;;;;14.99;nan;98399.94;5010277;28;19935;-73
2022/07/16 03:57:40;;;;;;;;;;;;;;;14.86;nan;98403.69;5009414;28;19947;-73
2022/07/16 04:00:09;;;;;;;;;;;;;;;14.77;nan;98402.94;5012851;28;19933;-73
2022/07/16 04:02:37;;;;;;;;;;;;;;;14.73;nan;98407.44;5005309;28;19936;-73
2022/07/16 04:05:05;;;;;;;;;;;;;;;14.73;nan;98407.44;5020952;28;20252;-73
2022/07/16 04:07:35;;;;;;;;;;;;;;;14.71;nan;98398.78;4981955;28;19926;-73
2022/07/16 04:10:03;;;;;;;;;;;;;;;14.64;nan;98411.00;5007071;28;19925;-72
2022/07/16 04:12:56;;;;;;;;;;;;;;;14.47;nan;98416.50;5003557;28;19955;-73
2022/07/16 04:15:24;;;;;;;;;;;;;;;14.28;nan;98421.50;4999973;28;20247;-72
2022/07/16 04:17:53;;;;;;;;;;;;;;;14.33;nan;98426.81;5009389;28;19936;-73
2022/07/16 04:20:21;;;;;;;;;;;;;;;14.36;nan;98426.13;5007583;28;19937;-72
2022/07/16 04:22:50;;;;;;;;;;;;;;;14.36;nan;98428.88;5005566;28;19972;-73
2022/07/16 04:25:19;;;;;;;;;;;;;;;14.38;nan;98435.63;5004517;28;19925;-73
2022/07/16 04:27:47;;;;;;;;;;;;;;;14.33;nan;98437.75;5000763;28;19980;-73
2022/07/16 04:30:15;;;;;;;;;;;;;;;14.31;nan;98434.50;5005504;28;19932;-73
2022/07/16 04:32:45;;;;;;;;;;;;;;;14.29;nan;98436.78;5003390;28;19937;-73
2022/07/16 04:35:13;;;;;;;;;;;;;;;14.30;nan;98430.16;5003578;28;19939;-73
2022/07/16 04:37:41;;;;;;;;;;;;;;;14.36;nan;98431.59;5009573;28;19932;-72
2022/07/16 04:40:12;;;;;;;;;;;;;;;14.29;nan;98426.63;5009156;28;19926;-73
2022/07/16 04:42:41;;;;;;;;;;;;;;;14.25;nan;98427.59;5006661;28;19926;-73
2022/07/16 04:45:10;;;;;;;;;;;;;;;14.23;nan;98427.94;4997814;28;19931;-73
2022/07/16 04:47:38;;;;;;;;;;;;;;;14.22;nan;98436.44;5009363;28;19937;-73
2022/07/16 04:50:07;;;;;;;;;;;;;;;14.24;nan;98431.47;5002560;28;20372;-73
2022/07/16 04:52:38;;;;;;;;;;;;;;;14.37;nan;98441.41;5023999;28;20380;-72
2022/07/16 04:55:08;;;;;;;;;;;;;;;14.38;nan;98440.28;5010183;28;19930;-72
2022/07/16 04:57:40;;;;;;;;;;;;;;;14.46;nan;98430.47;5009382;28;20358;-73
2022/07/16 05:00:08;;;;;;;;;;;;;;;14.63;nan;98434.00;5004338;28;19930;-73
2022/07/16 05:05:22;;;;;;;;;;;;;;;14.94;nan;98435.69;5026674;28;19925;-76
2022/07/16 05:07:50;;;;;;;;;;;;;;;14.95;nan;98431.81;5012923;28;19925;-76
2022/07/16 05:13:12;;;;;;;;;;;;;;;14.93;nan;98436.84;5009152;28;20040;-75
2022/07/16 05:15:40;;;;;;;;;;;;;;;15.06;nan;98432.28;5005590;28;19979;-76
2022/07/16 05:18:09;;;;;;;;;;;;;;;14.96;nan;98441.63;5010642;28;20292;-76
2022/07/16 05:20:37;;;;;;;;;;;;;;;14.78;nan;98440.09;5024708;28;19936;-75
2022/07/16 05:23:05;;;;;;;;;;;;;;;15.03;nan;98436.47;5012586;28;19925;-74
2022/07/16 05:25:34;;;;;;;;;;;;;;;15.02;nan;98440.34;5012929;28;19926;-75
2022/07/16 05:28:01;;;;;;;;;;;;;;;15.11;nan;98438.38;5011883;28;19987;-75
2022/07/16 05:30:31;;;;;;;;;;;;;;;15.13;nan;98443.53;5005958;28;20372;-75
2022/07/16 05:33:00;;;;;;;;;;;;;;;15.16;nan;98438.19;5011294;28;19933;-75
2022/07/16 05:35:28;;;;;;;;;;;;;;;15.30;nan;98440.72;5007844;28;19925;-75
2022/07/16 05:37:56;;;;;;;;;;;;;;;15.28;nan;98442.16;5011318;28;19949;-75
2022/07/16 05:40:25;;;;;;;;;;;;;;;15.38;nan;98441.78;5007760;28;19994;-75
2022/07/16 05:43:00;;;;;;;;;;;;;;;14.99;nan;98451.94;5011954;28;20314;-74
2022/07/16 05:45:28;;;;;;;;;;;;;;;15.14;nan;98442.41;5006257;28;19925;-75
2022/07/16 05:47:58;;;;;;;;;;;;;;;15.27;nan;98454.25;5009209;28;19929;-75
2022/07/16 05:50:26;;;;;;;;;;;;;;;15.39;nan;98446.97;5026708;28;19935;-75
2022/07/16 05:52:54;;;;;;;;;;;;;;;15.49;nan;98450.44;5012498;28;19932;-75
2022/07/16 05:55:22;;;;;;;;;;;;;;;15.46;nan;98454.66;5013217;28;19926;-74
2022/07/16 05:57:50;;;;;;;;;;;;;;;15.49;nan;98459.44;5011221;28;19926;-74
2022/07/16 06:00:19;;;;;;;;;;;;;;;15.54;nan;98464.75;5007093;28;20279;-74
2022/07/16 06:02:47;;;;;;;;;;;;;;;15.59;nan;98455.53;5007302;28;20359;-75
2022/07/16 06:05:16;;;;;;;;;;;;;;;15.62;nan;98466.66;5010978;28;19925;-74
2022/07/16 06:07:44;;;;;;;;;;;;;;;15.68;nan;98468.09;5010949;28;19925;-75
2022/07/16 06:13:33;;;;;;;;;;;;;;;15.69;nan;98461.47;5007051;28;19925;-75
2022/07/16 06:16:02;;;;;;;;;;;;;;;15.78;nan;98463.38;5003179;28;19940;-75
2022/07/16 06:18:33;;;;;;;;;;;;;;;15.78;nan;98466.09;5025050;28;20399;-75
2022/07/16 06:21:13;;;;;;;;;;;;;;;15.81;nan;98468.16;4999313;28;19971;-76
2022/07/16 06:23:41;;;;;;;;;;;;;;;15.89;nan;98461.84;5023271;28;19934;-76
2022/07/16 06:26:09;;;;;;;;;;;;;;;16.03;nan;98467.03;5007943;28;19926;-76
2022/07/16 06:28:37;;;;;;;;;;;;;;;16.09;nan;98471.22;5009830;28;19926;-76
2022/07/16 06:31:06;;;;;;;;;;;;;;;16.11;nan;98475.22;4988332;28;19926;-75
2022/07/16 06:33:36;;;;;;;;;;;;;;;16.18;nan;98478.22;4996771;28;20399;-75
2022/07/16 06:36:06;;;;;;;;;;;;;;;16.25;nan;98472.22;5002653;28;19925;-75
2022/07/16 06:38:36;;;;;;;;;;;;;;;16.34;nan;98477.63;5009984;28;19925;-78
2022/07/16 06:41:06;;;;;;;;;;;;;;;16.42;nan;98482.25;5005690;28;19925;-80
2022/07/16 06:43:34;;;;;;;;;;;;;;;16.46;nan;98483.97;5008024;28;20364;-76
2022/07/16 06:46:02;;;;;;;;;;;;;;;16.54;nan;98486.97;5003818;28;19932;-76
2022/07/16 06:48:33;;;;;;;;;;;;;;;16.59;nan;98482.09;5004729;28;20422;-76
2022/07/16 06:51:02;;;;;;;;;;;;;;;16.63;nan;98474.00;5007820;28;19925;-75
2022/07/16 06:53:32;;;;;;;;;;;;;;;16.86;nan;98491.69;5011079;28;20410;-76
2022/07/16 06:56:02;;;;;;;;;;;;;;;16.89;nan;98482.81;5006567;28;19925;-77
2022/07/16 06:58:32;;;;;;;;;;;;;;;17.05;nan;98493.13;5024414;28;19999;-77
2022/07/16 07:01:01;;;;;;;;;;;;;;;16.95;nan;98491.63;4996810;28;19930;-75
2022/07/16 07:03:29;;;;;;;;;;;;;;;17.04;nan;98495.06;5021786;28;19926;-75
2022/07/16 07:05:58;;;;;;;;;;;;;;;17.14;nan;98494.63;5006979;28;19933;-77
2022/07/16 07:08:26;;;;;;;;;;;;;;;17.17;nan;98496.69;5007859;28;20299;-76
2022/07/16 07:10:59;;;;;;;;;;;;;;;17.31;nan;98487.31;5006703;28;20037;-78
2022/07/16 07:13:30;;;;;;;;;;;;;;;17.38;nan;98493.06;5009020;28;19945;-78
2022/07/16 07:15:59;;;;;;;;;;;;;;;17.41;nan;98495.13;5003997;28;19926;-79
2022/07/16 07:18:27;;;;;;;;;;;;;;;17.42;nan;98494.78;5006095;28;19936;-78
2022/07/16 07:21:02;;;;;;;;;;;;;;;17.58;nan;98499.59;5004044;28;19933;-83
2022/07/16 07:23:33;;;;;;;;;;;;;;;17.66;nan;98502.25;5008189;28;19925;-76
2022/07/16 07:26:01;;;;;;;;;;;;;;;17.80;nan;98494.50;5008305;28;19936;-75
2022/07/16 07:28:30;;;;;;;;;;;;;;;17.87;nan;98498.59;5004156;28;20406;-75
2022/07/16 07:30:59;;;;;;;;;;;;;;;17.97;nan;98489.88;5003776;28;20040;-75
2022/07/16 07:33:27;;;;;;;;;;;;;;;18.00;nan;98489.19;5024222;28;19929;-73
2022/07/16 07:35:55;;;;;;;;;;;;;;;18.08;nan;98473.72;5007636;28;19936;-73
2022/07/16 07:38:23;;;;;;;;;;;;;;;18.12;nan;98475.44;5009158;28;19940;-75
2022/07/16 07:40:51;;;;;;;;;;;;;;;18.13;nan;98476.22;5024884;28;19931;-74
2022/07/16 07:43:19;;;;;;;;;;;;;;;18.17;nan;98472.44;5009695;28;20307;-74
2022/07/16 07:45:49;;;;;;;;;;;;;;;18.26;nan;98472.28;5003605;28;20264;-74
2022/07/16 07:48:17;;;;;;;;;;;;;;;18.26;nan;98475.81;5003777;28;19940;-74
2022/07/16 07:50:45;;;;;;;;;;;;;;;18.42;nan;98469.59;5009115;28;20354;-74
2022/07/16 07:53:13;;;;;;;;;;;;;;;18.50;nan;98474.16;5006553;28;19932;-75
2022/07/16 07:55:42;;;;;;;;;;;;;;;18.62;nan;98481.56;5009499;28;19925;-75
2022/07/16 07:58:10;;;;;;;;;;;;;;;18.69;nan;98471.56;5008774;28;19941;-75
2022/07/16 08:00:38;;;;;;;;;;;;;;;18.73;nan;98482.69;5004227;28;20310;-73
2022/07/16 08:03:10;;;;;;;;;;;;;;;18.75;nan;98469.38;5007752;28;19926;-74
2022/07/16 08:05:39;;;;;;;;;;;;;;;18.86;nan;98484.25;5006099;28;19926;-75
2022/07/16 08:08:07;;;;;;;;;;;;;;;18.94;nan;98480.53;5025060;28;19929;-74
2022/07/16 08:11:00;;;;;;;;;;;;;;;18.94;nan;98474.22;5009198;28;20003;-75
2022/07/16 08:13:34;;;;;;;;;;;;;;;19.01;nan;98471.66;5025178;28;19926;-75
2022/07/16 08:16:02;;;;;;;;;;;;;;;19.13;nan;98473.53;4987418;28;19933;-75
2022/07/16 08:18:34;;;;;;;;;;;;;;;19.23;nan;98465.56;5021147;28;20380;-80
2022/07/16 08:21:03;;;;;;;;;;;;;;;19.33;nan;98462.28;5008538;28;20251;-74
2022/07/16 08:26:20;;;;;;;;;;;;;;;19.48;nan;98466.16;5008911;28;19936;-74
2022/07/16 08:28:48;;;;;;;;;;;;;;;19.57;nan;98465.97;5006069;28;19944;-75
2022/07/16 08:31:16;;;;;;;;;;;;;;;19.50;nan;98465.81;5003345;28;19932;-75
2022/07/16 08:33:49;;;;;;;;;;;;;;;19.40;nan;98461.66;5006522;28;19940;-74
2022/07/16 08:36:17;;;;;;;;;;;;;;;19.58;nan;98460.09;5000458;28;19929;-74
2022/07/16 08:38:49;;;;;;;;;;;;;;;19.68;nan;98461.56;5011648;28;19926;-75
2022/07/16 08:41:17;;;;;;;;;;;;;;;19.80;nan;98474.41;5013078;28;19935;-71
2022/07/16 08:43:46;;;;;;;;;;;;;;;19.82;nan;98467.41;5009192;28;20390;-72
2022/07/16 08:46:14;;;;;;;;;;;;;;;20.01;nan;98463.88;5007342;28;20390;-73
2022/07/16 08:48:42;;;;;;;;;;;;;;;20.14;nan;98473.66;5010102;28;19926;-74
2022/07/16 08:51:12;;;;;;;;;;;;;;;20.06;nan;98465.56;5011222;28;19926;-74
2022/07/16 08:53:40;;;;;;;;;;;;;;;20.22;nan;98482.84;5007533;28;20016;-76
2022/07/16 08:56:08;;;;;;;;;;;;;;;20.09;nan;98481.41;5013686;28;19932;-74
2022/07/16 08:58:36;;;;;;;;;;;;;;;20.23;nan;98487.22;5008973;28;19936;-76
2022/07/16 09:01:06;;;;;;;;;;;;;;;20.12;nan;98478.69;5006926;28;19932;-75
2022/07/16 09:03:35;;;;;;;;;;;;;;;20.20;nan;98476.91;5015471;28;19925;-75
2022/07/16 09:06:05;;;;;;;;;;;;;;;20.32;nan;98476.78;5008426;28;19965;-75
2022/07/16 09:08:35;;;;;;;;;;;;;;;20.31;nan;98471.63;5013340;28;19932;-75
2022/07/16 09:11:16;;;;;;;;;;;;;;;20.35;nan;98473.31;5015866;28;19955;-76
2022/07/16 09:13:59;;;;;;;;;;;;;;;20.40;nan;98470.25;5006515;28;19925;-76
2022/07/16 09:16:52;;;;;;;;;;;;;;;20.45;nan;98473.88;4999821;28;19926;-75
2022/07/16 09:19:21;;;;;;;;;;;;;;;20.38;nan;98472.56;5011490;28;20460;-75
2022/07/16 09:24:53;;;;;;;;;;;;;;;20.40;nan;98481.28;5010797;28;19933;-74
2022/07/16 09:27:47;;;;;;;;;;;;;;;20.52;nan;98487.88;5012807;28;20302;-73
2022/07/16 09:30:22;;;;;;;;;;;;;;;20.60;nan;98481.31;5010086;28;19963;-75
2022/07/16 09:32:50;;;;;;;;;;;;;;;20.69;nan;98476.38;5015087;28;20400;-75
2022/07/16 09:35:18;;;;;;;;;;;;;;;20.71;nan;98467.72;5008614;28;20013;-75
2022/07/16 09:37:47;;;;;;;;;;;;;;;20.90;nan;98478.75;4992170;28;19932;-76
2022/07/16 09:40:29;;;;;;;;;;;;;;;20.74;nan;98480.81;5008118;28;19925;-79
2022/07/16 09:42:57;;;;;;;;;;;;;;;20.73;nan;98468.97;5008268;28;20407;-76
2022/07/16 09:45:25;;;;;;;;;;;;;;;20.67;nan;98470.44;5006872;28;19925;-77
2022/07/16 09:47:54;;;;;;;;;;;;;;;20.66;nan;98474.31;5024515;28;19925;-77
2022/07/16 09:50:27;;;;;;;;;;;;;;;20.74;nan;98461.47;5025286;28;20409;-76
2022/07/16 09:52:55;;;;;;;;;;;;;;;20.85;nan;98468.78;5013883;28;19932;-76
2022/07/16 09:55:26;;;;;;;;;;;;;;;21.00;nan;98458.81;5014402;28;19925;-75
2022/07/16 09:57:54;;;;;;;;;;;;;;;21.11;nan;98459.00;5011043;28;20310;-75
2022/07/16 10:00:22;;;;;;;;;;;;;;;21.23;nan;98458.03;5004748;28;20418;-75
2022/07/16 10:02:51;;;;;;;;;;;;;;;21.12;nan;98466.91;5008466;28;19930;-74
2022/07/16 10:05:19;;;;;;;;;;;;;;;21.30;nan;98466.47;5007310;28;19951;-74
2022/07/16 10:07:51;;;;;;;;;;;;;;;21.29;nan;98459.31;4986443;28;19926;-73
2022/07/16 10:13:16;;;;;;;;;;;;;;;21.26;nan;98460.06;5015192;28;19937;-74
2022/07/16 10:15:44;;;;;;;;;;;;;;;21.38;nan;98452.41;5015044;28;20328;-73
2022/07/16 10:18:32;;;;;;;;;;;;;;;21.49;nan;98458.09;5014031;28;20571;-73
2022/07/16 10:21:08;;;;;;;;;;;;;;;21.53;nan;98441.59;5021958;28;20324;-75
2022/07/16 10:23:37;;;;;;;;;;;;;;;21.70;nan;98454.88;4999646;28;19925;-75
2022/07/16 10:26:10;;;;;;;;;;;;;;;21.68;nan;98454.47;5008543;28;19931;-74
2022/07/16 10:28:41;;;;;;;;;;;;;;;21.58;nan;98446.81;4988703;28;19925;-73
2022/07/16 10:31:35;;;;;;;;;;;;;;;21.58;nan;98455.88;5003811;28;19925;-74
2022/07/16 10:37:33;;;;;;;;;;;;;;;21.65;nan;98452.44;5022631;28;20333;-75
2022/07/16 10:40:03;;;;;;;;;;;;;;;21.64;nan;98453.59;5004753;28;19925;-75
2022/07/16 10:42:32;;;;;;;;;;;;;;;21.63;nan;98458.34;5009946;28;20325;-75
2022/07/16 10:45:01;;;;;;;;;;;;;;;21.59;nan;98451.16;5005718;28;19977;-75
2022/07/16 10:47:43;;;;;;;;;;;;;;;21.77;nan;98468.00;5016532;28;19929;-74
2022/07/16 10:50:15;;;;;;;;;;;;;;;21.58;nan;98461.41;4994925;28;20433;-75
2022/07/16 10:52:46;;;;;;;;;;;;;;;21.50;nan;98461.66;5017562;28;19936;-73
2022/07/16 10:55:18;;;;;;;;;;;;;;;21.46;nan;98453.31;5011957;28;19933;-75
2022/07/16 10:57:46;;;;;;;;;;;;;;;21.47;nan;98467.94;5015867;28;20337;-75
2022/07/16 11:00:16;;;;;;;;;;;;;;;21.49;nan;98462.84;5009202;28;19932;-73
2022/07/16 11:02:44;;;;;;;;;;;;;;;21.49;nan;98460.88;5024599;28;20391;-84
2022/07/16 11:05:33;;;;;;;;;;;;;;;21.67;nan;98459.16;4991359;28;19925;-73
2022/07/16 11:08:08;;;;;;;;;;;;;;;21.82;nan;98460.19;5007566;28;19929;-75
2022/07/16 11:10:49;;;;;;;;;;;;;;;21.75;nan;98468.41;4999658;28;19925;-76
2022/07/16 11:13:18;;;;;;;;;;;;;;;21.67;nan;98463.91;5001003;28;19960;-77
2022/07/16 11:15:48;;;;;;;;;;;;;;;21.57;nan;98464.53;5018436;28;19932;-76
2022/07/16 11:18:17;;;;;;;;;;;;;;;21.56;nan;98468.47;5002320;28;19933;-75
2022/07/16 11:20:47;;;;;;;;;;;;;;;21.66;nan;98459.56;5002549;28;19931;-74
2022/07/16 11:23:17;;;;;;;;;;;;;;;21.81;nan;98461.38;5001736;28;19991;-75
2022/07/16 11:25:55;;;;;;;;;;;;;;;22.01;nan;98473.13;5014167;28;19925;-75
2022/07/16 11:28:23;;;;;;;;;;;;;;;22.04;nan;98463.28;5010897;28;19926;-74
2022/07/16 11:31:09;;;;;;;;;;;;;;;22.22;nan;98472.66;5004530;28;20276;-73
2022/07/16 11:33:52;;;;;;;;;;;;;;;22.17;nan;98461.91;5007007;28;19948;-73
2022/07/16 11:36:21;;;;;;;;;;;;;;;22.09;nan;98469.28;5003019;28;19929;-74
2022/07/16 11:38:49;;;;;;;;;;;;;;;22.07;nan;98471.63;5007788;28;19932;-75
2022/07/16 11:41:17;;;;;;;;;;;;;;;22.17;nan;98471.00;4990730;28;19936;-73
2022/07/16 11:43:46;;;;;;;;;;;;;;;22.07;nan;98462.53;5014595;28;19936;-73
2022/07/16 11:46:23;;;;;;;;;;;;;;;22.12;nan;98476.06;4999370;28;20394;-75
2022/07/16 11:48:51;;;;;;;;;;;;;;;22.07;nan;98465.31;5010451;28;20406;-75
2022/07/16 11:51:20;;;;;;;;;;;;;;;21.97;nan;98477.81;4996601;28;19933;-75
2022/07/16 11:53:50;;;;;;;;;;;;;;;21.88;nan;98472.53;5008393;28;19925;-73
2022/07/16 11:56:30;;;;;;;;;;;;;;;21.90;nan;98478.50;5023569;28;20024;-73
2022/07/16 11:58:58;;;;;;;;;;;;;;;21.94;nan;98478.53;4993399;28;20078;-74
2022/07/16 12:01:28;;;;;;;;;;;;;;;21.87;nan;98483.97;5002799;28;19932;-74
2022/07/16 12:03:57;;;;;;;;;;;;;;;21.81;nan;98486.25;5025012;28;19925;-74
2022/07/16 12:06:25;;;;;;;;;;;;;;;21.82;nan;98482.31;5010720;28;20398;-74
2022/07/16 12:08:54;;;;;;;;;;;;;;;22.02;nan;98480.25;5003386;28;20344;-74
2022/07/16 12:11:29;;;;;;;;;;;;;;;22.21;nan;98471.88;5002025;28;19978;-74
2022/07/16 12:13:57;;;;;;;;;;;;;;;22.16;nan;98482.47;5013134;28;19937;-74
2022/07/16 12:16:50;;;;;;;;;;;;;;;22.23;nan;98474.25;5007352;28;20027;-75
2022/07/16 12:19:19;;;;;;;;;;;;;;;22.31;nan;98489.75;5015145;28;19948;-73
2022/07/16 12:21:48;;;;;;;;;;;;;;;22.20;nan;98477.75;5018627;28;20382;-74
2022/07/16 12:24:17;;;;;;;;;;;;;;;22.22;nan;98490.06;5008364;28;20271;-73
2022/07/16 12:26:45;;;;;;;;;;;;;;;22.28;nan;98482.22;5016212;28;19937;-73
2022/07/16 12:29:14;;;;;;;;;;;;;;;22.23;nan;98483.34;5013840;28;20240;-74
2022/07/16 12:31:43;;;;;;;;;;;;;;;22.21;nan;98482.94;5000472;28;19930;-75
2022/07/16 12:34:11;;;;;;;;;;;;;;;22.36;nan;98481.13;5026353;28;19979;-74
2022/07/16 12:36:41;;;;;;;;;;;;;;;22.55;nan;98488.50;5009463;28;19929;-74
2022/07/16 12:39:10;;;;;;;;;;;;;;;22.34;nan;98489.03;5007419;28;19925;-74
2022/07/16 12:41:39;;;;;;;;;;;;;;;22.40;nan;98481.97;5008824;28;19936;-74
2022/07/16 12:44:09;;;;;;;;;;;;;;;22.47;nan;98479.28;5004884;28;19936;-75
2022/07/16 12:46:38;;;;;;;;;;;;;;;22.51;nan;98484.88;5019145;28;19925;-76
2022/07/16 12:49:06;;;;;;;;;;;;;;;22.57;nan;98477.03;5006305;28;19930;-83
2022/07/16 12:51:35;;;;;;;;;;;;;;;22.64;nan;98489.03;5012431;28;19926;-75
2022/07/16 12:54:05;;;;;;;;;;;;;;;22.52;nan;98486.47;5013282;28;20290;-75
2022/07/16 12:59:19;;;;;;;;;;;;;;;22.49;nan;98493.59;5013034;28;19925;-75
2022/07/16 13:01:47;;;;;;;;;;;;;;;22.54;nan;98480.59;5007780;28;19932;-76
2022/07/16 13:04:15;;;;;;;;;;;;;;;22.62;nan;98482.25;5016082;28;19925;-75
2022/07/16 13:06:44;;;;;;;;;;;;;;;22.72;nan;98485.16;5024889;28;20414;-75
2022/07/16 13:09:15;;;;;;;;;;;;;;;22.98;nan;98475.97;5010756;28;19933;-73
2022/07/16 13:11:43;;;;;;;;;;;;;;;22.97;nan;98479.13;5012164;28;19953;-75
2022/07/16 13:14:12;;;;;;;;;;;;;;;22.79;nan;98473.34;5006436;28;19940;-75
2022/07/16 13:16:40;;;;;;;;;;;;;;;22.67;nan;98479.16;5013662;28;19926;-75
2022/07/16 13:19:09;;;;;;;;;;;;;;;22.58;nan;98473.88;5014093;28;20404;-75
2022/07/16 13:21:38;;;;;;;;;;;;;;;22.64;nan;98468.84;5015616;28;19929;-75
2022/07/16 13:24:06;;;;;;;;;;;;;;;22.66;nan;98470.03;5010783;28;19936;-74
2022/07/16 13:26:36;;;;;;;;;;;;;;;22.59;nan;98481.03;5012962;28;19931;-75
2022/07/16 13:29:16;;;;;;;;;;;;;;;22.62;nan;98479.47;4994017;28;19936;-75
2022/07/16 13:32:10;;;;;;;;;;;;;;;22.55;nan;98476.63;5007960;28;19958;-75
2022/07/16 13:34:42;;;;;;;;;;;;;;;22.41;nan;98485.56;5030307;28;19964;-75
2022/07/16 13:37:10;;;;;;;;;;;;;;;22.62;nan;98471.97;5012706;28;20376;-76
2022/07/16 13:39:38;;;;;;;;;;;;;;;22.64;nan;98477.94;5010946;28;20036;-75
2022/07/16 13:45:01;;;;;;;;;;;;;;;22.63;nan;98470.00;5010422;28;19926;-75
2022/07/16 13:47:32;;;;;;;;;;;;;;;22.75;nan;98469.75;5033128;28;19932;-75
2022/07/16 13:50:00;;;;;;;;;;;;;;;22.96;nan;98474.78;5016851;28;19932;-75
2022/07/16 13:52:28;;;;;;;;;;;;;;;23.09;nan;98478.84;5017073;28;19925;-74
2022/07/16 13:54:56;;;;;;;;;;;;;;;23.06;nan;98470.50;5024121;28;19925;-75
2022/07/16 14:00:27;;;;;;;;;;;;;;;23.36;nan;98470.38;4933517;29;20348;-75
2022/07/16 14:02:55;;;;;;;;;;;;;;;23.25;nan;98473.06;4928074;29;20096;-75
2022/07/16 14:05:23;;;;;;;;;;;;;;;23.22;nan;98468.28;4968630;28;20264;-75
2022/07/16 14:07:51;;;;;;;;;;;;;;;22.88;nan;98471.09;5011463;28;19926;-75